This is the latest recevied weather packets stored in our database for station/object T77NM. If no packets are shown the sender has not sent any weather packets the latest 10 day(s).
| Time | Temp. | Humidity | Pressure | Rain* | Wind** | Luminosity | Snow |
|---|---|---|---|---|---|---|---|
| 1777805120 | 21.67° C | 38% | 1018.5 hPa | 0 mm | - | 1016 W/m² | - |
| 1777798864 | 20.56° C | 41% | 1019.4 hPa | 0 mm | - | 708 W/m² | - |
| 1777794348 | 18.89° C | 39% | 1019.5 hPa | 0 mm | - | 701 W/m² | - |
| 1777792546 | 17.78° C | 41% | 1019.6 hPa | 0 mm | - | 494 W/m² | - |
| 1777786217 | 16.11° C | 41% | 1019.2 hPa | 0 mm | - | 42 W/m² | - |
| 1777772785 | 16.11° C | 36% | 1019.5 hPa | 0 mm | - | 0 W/m² | - |
| 1777766452 | 17.22° C | 36% | 1020.4 hPa | 0 mm | - | 0 W/m² | - |
| 1777764647 | 16.11° C | 37% | 1020.6 hPa | 0 mm | - | 0 W/m² | - |
| 1777752934 | 16.11° C | 42% | 1021.6 hPa | 0 mm | - | 0 W/m² | - |
| 1777743035 | 17.78° C | 42% | 1021.3 hPa | 0 mm | - | 69 W/m² | - |
| 1777742124 | 18.33° C | 41% | 1021.4 hPa | 0 mm | - | 132 W/m² | - |
| 1777741228 | 18.89° C | 39% | 1021.5 hPa | 0 mm | - | 188 W/m² | - |
| 1777739425 | 19.44° C | 38% | 1021.9 hPa | 0 mm | - | 320 W/m² | - |
| 1777731307 | 18.89° C | 37% | 1023.2 hPa | 0 mm | - | 761 W/m² | - |
| 1777726857 | 18.89° C | 37% | 1024 hPa | 0 mm | - | 921 W/m² | - |
| 1777723253 | 18.33° C | 35% | 1024.7 hPa | 0 mm | - | 995 W/m² | - |
| 1777721449 | 18.33° C | 34% | 1024.9 hPa | 0 mm | - | 1009 W/m² | - |
| 1777718749 | 18.89° C | 35% | 1025.4 hPa | 0 mm | - | 1000 W/m² | - |
| 1777716954 | 17.78° C | 35% | 1025.8 hPa | 0 mm | - | 983 W/m² | - |
| 1777713320 | 16.67° C | 38% | 1026.1 hPa | 0 mm | - | 691 W/m² | - |
| 1777703442 | 13.89° C | 39% | 1026.4 hPa | 0 mm | - | 364 W/m² | - |
| 1777695325 | 11.67° C | 42% | 1026.2 hPa | 0 mm | - | 11 W/m² | - |
| 1777691722 | 11.67° C | 42% | 1026.1 hPa | 0 mm | - | 0 W/m² | - |
| 1777687218 | 12.22° C | 37% | 1026.3 hPa | 0 mm | - | 0 W/m² | - |
| 1777686320 | 12.22° C | 38% | 1026.3 hPa | 0 mm | - | 0 W/m² | - |
* Rain latest hour (hover to see other rain measurements)
** Current wind speed in m/s (hover to see current wind gust speed)